Terminal Aerodrome Forecast
Issued by NWS

Current Version | Previous Version | Text Only | Print | Product List | Glossary On
Versions: 1 2 3 4 5 6 7 8 9 10 11 12 13 14 15 16 17 18 19
000
FTUS44 KLZK 221100
TAFHRO
TAF
KHRO 221131Z 2212/2312 16003KT P6SM FEW001 SCT250
      TEMPO 2212/2213 6SM BR SCT001
     FM221400 17005KT P6SM SCT250
     FM221900 17007KT P6SM SCT035 SCT250
     FM230000 17003KT P6SM SCT250=

USA.gov is the U.S. government's official web portal to all federal, state and local government web resources and services.